Time;durP1;ratioP1;P1;durP2;ratioP2;P2;SDS_P1;SDS_P2;PMS_P1;PMS_P2;Temp;Humidity;BMP_temperature;BMP_pressure;BME280_temperature;BME280_humidity;BME280_pressure;Samples;Min_cycle;Max_cycle;Signal;HPM_P1;HPM_P2
2021/07/02 00:00:09;;;;;;;27.00;19.13;;;16.40;99.90;;;;;;5109603;28;20683;-72
2021/07/02 00:02:36;;;;;;;25.67;19.63;;;16.30;99.90;;;;;;5109790;28;20206;-72
2021/07/02 00:05:04;;;;;;;29.37;19.83;;;16.30;99.90;;;;;;5109834;28;20206;-72
2021/07/02 00:07:31;;;;;;;31.10;20.23;;;16.30;99.90;;;;;;5109583;28;20237;-72
2021/07/02 00:09:59;;;;;;;28.70;19.93;;;16.20;99.90;;;;;;5109624;27;20226;-71
2021/07/02 00:12:25;;;;;;;29.17;20.33;;;16.30;99.90;;;;;;5109798;27;20248;-72
2021/07/02 00:14:52;;;;;;;29.10;19.40;;;16.30;99.90;;;;;;5109695;28;20198;-72
2021/07/02 00:17:19;;;;;;;32.20;20.37;;;16.30;99.90;;;;;;5109523;28;20203;-72
2021/07/02 00:19:45;;;;;;;35.03;22.03;;;16.30;99.90;;;;;;5109462;28;20318;-72
2021/07/02 00:22:12;;;;;;;31.93;20.90;;;16.30;99.90;;;;;;5109511;28;20255;-72
2021/07/02 00:24:38;;;;;;;39.23;22.10;;;16.30;99.90;;;;;;5109571;28;20206;-72
2021/07/02 00:27:06;;;;;;;33.27;21.43;;;16.40;99.90;;;;;;5109541;28;20233;-72
2021/07/02 00:29:33;;;;;;;35.20;21.53;;;16.30;99.90;;;;;;5109338;28;20672;-72
2021/07/02 00:32:00;;;;;;;33.17;22.40;;;16.30;99.90;;;;;;5109654;28;20225;-72
2021/07/02 00:34:26;;;;;;;38.13;22.23;;;16.30;99.90;;;;;;5109403;28;20271;-72
2021/07/02 00:36:53;;;;;;;42.67;23.40;;;16.40;99.90;;;;;;5109439;28;20295;-72
2021/07/02 00:39:19;;;;;;;43.17;23.67;;;16.40;99.90;;;;;;5109166;28;20318;-72
2021/07/02 00:41:46;;;;;;;38.20;23.00;;;16.40;99.90;;;;;;5109374;28;20206;-72
2021/07/02 00:44:14;;;;;;;38.97;24.03;;;16.40;99.90;;;;;;5109087;28;20226;-72
2021/07/02 00:46:41;;;;;;;41.47;22.13;;;16.40;99.90;;;;;;5108916;28;20667;-72
2021/07/02 00:49:07;;;;;;;42.67;21.77;;;16.40;99.90;;;;;;5109238;28;20229;-72
2021/07/02 00:51:36;;;;;;;40.57;22.53;;;16.50;99.90;;;;;;5108852;28;20205;-72
2021/07/02 00:54:02;;;;;;;37.20;23.47;;;16.50;99.90;;;;;;5109295;28;20237;-72
2021/07/02 00:56:29;;;;;;;35.90;21.93;;;16.50;99.90;;;;;;5108756;28;20255;-72
2021/07/02 00:58:56;;;;;;;37.40;22.07;;;16.50;99.90;;;;;;5108813;27;20354;-72
2021/07/02 01:01:23;;;;;;;37.33;23.07;;;16.50;99.90;;;;;;5108599;28;20578;-73
2021/07/02 01:03:50;;;;;;;40.37;24.43;;;16.50;99.90;;;;;;5108749;28;20205;-72
2021/07/02 01:06:17;;;;;;;36.03;22.63;;;16.50;99.90;;;;;;5108895;28;20221;-72
2021/07/02 01:08:44;;;;;;;41.17;24.33;;;16.50;99.90;;;;;;5108947;28;20209;-72
2021/07/02 01:11:11;;;;;;;37.37;23.67;;;16.50;99.90;;;;;;5108952;28;20206;-72
2021/07/02 01:13:38;;;;;;;37.43;23.80;;;16.50;99.90;;;;;;5108043;28;20206;-72
2021/07/02 01:16:05;;;;;;;38.73;22.47;;;16.50;99.90;;;;;;5108578;28;20649;-73
2021/07/02 01:18:33;;;;;;;40.93;22.50;;;16.50;99.90;;;;;;5108491;28;20272;-72
2021/07/02 01:21:01;;;;;;;37.13;22.83;;;16.50;99.90;;;;;;5108699;28;20615;-72
2021/07/02 01:23:28;;;;;;;35.07;23.07;;;16.50;99.90;;;;;;5108547;28;20255;-72
2021/07/02 01:25:55;;;;;;;38.30;22.73;;;16.50;99.90;;;;;;5108691;28;20201;-73
2021/07/02 01:28:22;;;;;;;38.97;23.40;;;16.60;99.90;;;;;;5108566;28;20296;-72
2021/07/02 01:30:48;;;;;;;34.00;23.10;;;16.60;99.90;;;;;;5108597;28;20235;-73
2021/07/02 01:33:16;;;;;;;42.20;23.87;;;16.50;99.90;;;;;;5108648;28;20237;-72
2021/07/02 01:35:43;;;;;;;35.73;22.60;;;16.60;99.90;;;;;;5108471;28;20202;-72
2021/07/02 01:38:11;;;;;;;35.20;22.30;;;16.60;99.90;;;;;;5108512;28;20251;-72
2021/07/02 01:40:37;;;;;;;29.97;21.97;;;16.60;99.90;;;;;;5108229;28;20672;-72
2021/07/02 01:43:04;;;;;;;35.10;22.37;;;16.60;99.90;;;;;;5108613;28;20271;-72
2021/07/02 01:45:31;;;;;;;39.20;23.67;;;16.60;99.90;;;;;;5108465;28;20287;-72
2021/07/02 01:47:58;;;;;;;35.33;21.07;;;16.60;99.90;;;;;;5108547;28;20206;-72
2021/07/02 01:50:26;;;;;;;42.10;21.60;;;16.60;99.90;;;;;;5108174;28;20262;-72
2021/07/02 01:52:53;;;;;;;31.70;20.60;;;16.60;99.90;;;;;;5108594;28;20206;-73
2021/07/02 01:55:21;;;;;;;29.80;19.87;;;16.60;99.90;;;;;;5108470;28;20210;-73
2021/07/02 01:57:47;;;;;;;33.03;19.03;;;16.60;99.90;;;;;;5108020;28;20257;-73
2021/07/02 02:00:16;;;;;;;31.90;19.20;;;16.60;99.90;;;;;;5108237;28;20727;-73
2021/07/02 02:02:42;;;;;;;24.77;17.77;;;16.60;99.90;;;;;;5108314;28;20206;-73
2021/07/02 02:05:10;;;;;;;27.80;18.10;;;16.60;99.90;;;;;;5108241;28;20262;-72
2021/07/02 02:07:36;;;;;;;26.23;16.93;;;16.60;99.90;;;;;;5108120;28;20202;-73
2021/07/02 02:10:04;;;;;;;28.30;17.30;;;16.60;99.90;;;;;;5108232;28;20224;-73
2021/07/02 02:12:32;;;;;;;32.13;16.87;;;16.60;99.90;;;;;;5107902;28;20651;-73
2021/07/02 02:14:58;;;;;;;23.00;16.03;;;16.60;99.90;;;;;;5108217;28;20642;-72
2021/07/02 02:17:25;;;;;;;28.70;15.87;;;16.60;99.90;;;;;;5108040;28;20251;-72
2021/07/02 02:19:51;;;;;;;20.43;15.47;;;16.60;99.90;;;;;;5107870;28;20264;-72
2021/07/02 02:22:18;;;;;;;25.67;15.70;;;16.60;99.90;;;;;;5108190;28;20255;-72
2021/07/02 02:24:45;;;;;;;21.23;15.20;;;16.60;99.90;;;;;;5109382;28;20271;-72
2021/07/02 02:27:11;;;;;;;21.47;15.23;;;16.60;99.90;;;;;;5111653;28;20725;-73
2021/07/02 02:29:39;;;;;;;19.40;14.43;;;16.60;99.90;;;;;;5111660;28;20237;-72
2021/07/02 02:32:07;;;;;;;21.97;15.10;;;16.60;99.90;;;;;;5111657;28;20240;-72
2021/07/02 02:34:34;;;;;;;18.63;14.17;;;16.60;99.90;;;;;;5095049;28;20203;-73
2021/07/02 02:37:01;;;;;;;16.73;13.57;;;16.60;99.90;;;;;;5099898;28;20191;-72
2021/07/02 02:39:28;;;;;;;18.77;14.03;;;16.60;99.90;;;;;;5099806;28;20250;-74
2021/07/02 02:41:54;;;;;;;17.13;14.33;;;16.60;99.90;;;;;;5095518;28;20419;-72
2021/07/02 02:44:21;;;;;;;24.17;14.70;;;16.60;99.90;;;;;;5090017;28;20268;-72
2021/07/02 02:46:49;;;;;;;18.77;14.50;;;16.60;99.90;;;;;;5097605;28;20238;-72
2021/07/02 02:49:15;;;;;;;18.10;13.50;;;16.60;99.90;;;;;;5089305;28;20241;-72
2021/07/02 02:51:42;;;;;;;15.17;13.57;;;16.60;99.90;;;;;;5089113;28;20681;-72
2021/07/02 02:54:09;;;;;;;20.23;13.67;;;16.60;99.90;;;;;;5088885;28;20211;-74
2021/07/02 02:56:36;;;;;;;18.27;13.37;;;16.60;99.90;;;;;;5088523;28;20275;-74
2021/07/02 02:59:03;;;;;;;18.70;15.23;;;16.60;99.90;;;;;;5090969;28;20563;-72
2021/07/02 03:01:29;;;;;;;17.70;12.80;;;16.60;99.90;;;;;;5097065;27;20248;-72
2021/07/02 03:03:57;;;;;;;14.50;12.90;;;16.70;99.90;;;;;;5098530;28;20224;-72
2021/07/02 03:06:24;;;;;;;16.73;12.60;;;16.70;99.90;;;;;;5098546;28;20260;-72
2021/07/02 03:08:51;;;;;;;15.67;13.00;;;16.70;99.90;;;;;;5096534;28;20304;-72
2021/07/02 03:11:21;;;;;;;13.93;12.40;;;16.60;99.90;;;;;;5102174;28;20205;-72
2021/07/02 03:13:48;;;;;;;17.57;12.77;;;16.60;99.90;;;;;;5108423;28;20230;-72
2021/07/02 03:16:14;;;;;;;18.17;13.23;;;16.60;99.90;;;;;;5097733;28;20211;-71
2021/07/02 03:18:41;;;;;;;16.87;12.10;;;16.60;99.90;;;;;;5090003;28;20242;-72
2021/07/02 03:21:09;;;;;;;17.73;13.33;;;16.60;99.90;;;;;;5105769;28;20700;-72
2021/07/02 03:23:35;;;;;;;15.47;13.17;;;16.60;99.90;;;;;;5109752;28;20214;-71
2021/07/02 03:26:02;;;;;;;16.23;12.20;;;16.60;99.90;;;;;;5109257;28;20202;-71
2021/07/02 03:28:30;;;;;;;13.40;10.70;;;16.60;99.90;;;;;;5110098;28;20202;-71
2021/07/02 03:30:57;;;;;;;15.17;10.53;;;16.60;99.90;;;;;;5110720;28;20209;-71
2021/07/02 03:33:23;;;;;;;14.23;10.97;;;16.60;99.90;;;;;;5110364;28;20190;-71
2021/07/02 03:35:50;;;;;;;12.07;10.10;;;16.60;99.90;;;;;;5109760;28;20242;-72
2021/07/02 03:38:18;;;;;;;11.47;10.07;;;16.60;99.90;;;;;;5110198;28;20664;-71
2021/07/02 03:40:45;;;;;;;11.27;10.00;;;16.60;99.90;;;;;;5110268;28;20253;-72
2021/07/02 03:43:11;;;;;;;11.90;10.47;;;16.60;99.90;;;;;;5110270;28;20202;-71
2021/07/02 03:45:38;;;;;;;13.83;10.50;;;16.60;99.90;;;;;;5109953;27;20567;-71
2021/07/02 03:48:05;;;;;;;13.37;10.40;;;16.60;99.90;;;;;;5110181;28;20245;-71
2021/07/02 03:50:32;;;;;;;13.13;11.17;;;16.70;99.90;;;;;;5109964;28;20206;-71
2021/07/02 03:52:58;;;;;;;13.20;11.80;;;16.70;99.90;;;;;;5110119;28;20213;-71
2021/07/02 03:55:26;;;;;;;13.17;10.80;;;16.70;99.90;;;;;;5110080;28;20271;-72
2021/07/02 03:57:53;;;;;;;15.53;11.10;;;16.70;99.90;;;;;;5109909;28;20405;-72
2021/07/02 04:00:19;;;;;;;13.30;11.13;;;16.70;99.90;;;;;;5110128;28;20318;-72
2021/07/02 04:02:46;;;;;;;14.80;11.40;;;16.70;99.90;;;;;;5109892;28;20210;-71
2021/07/02 04:05:13;;;;;;;14.10;12.03;;;16.70;99.90;;;;;;5110025;28;20221;-71
2021/07/02 04:07:40;;;;;;;17.60;13.57;;;16.70;99.90;;;;;;5109760;28;20259;-71
2021/07/02 04:10:07;;;;;;;15.30;12.53;;;16.70;99.90;;;;;;5109866;28;20247;-71
2021/07/02 04:12:35;;;;;;;19.87;13.17;;;16.80;99.90;;;;;;5109786;28;20210;-71
2021/07/02 04:15:02;;;;;;;19.63;13.30;;;16.80;99.90;;;;;;5109841;28;20271;-71
2021/07/02 04:17:28;;;;;;;16.80;13.83;;;16.80;99.90;;;;;;5109692;28;20242;-72
2021/07/02 04:19:55;;;;;;;18.57;13.60;;;16.80;99.90;;;;;;5109523;28;20269;-71
2021/07/02 04:22:22;;;;;;;13.77;11.70;;;16.80;99.90;;;;;;5109305;28;20206;-71
2021/07/02 04:24:49;;;;;;;18.00;12.57;;;16.80;99.90;;;;;;5109459;28;20255;-72
2021/07/02 04:27:16;;;;;;;16.23;12.17;;;16.80;99.90;;;;;;5109436;28;20224;-71
2021/07/02 04:29:45;;;;;;;19.03;12.63;;;16.70;99.90;;;;;;5109161;28;20678;-71
2021/07/02 04:32:11;;;;;;;14.00;12.53;;;16.80;99.90;;;;;;5109428;28;20210;-72
2021/07/02 04:34:38;;;;;;;15.63;11.70;;;16.80;99.90;;;;;;5109126;28;20213;-71
2021/07/02 04:37:05;;;;;;;13.07;11.23;;;16.80;99.90;;;;;;5109399;28;20202;-72
2021/07/02 04:39:32;;;;;;;14.47;11.10;;;16.80;99.90;;;;;;5109240;28;20267;-71
2021/07/02 04:41:58;;;;;;;14.67;12.30;;;16.80;99.90;;;;;;5109428;28;20227;-72
2021/07/02 04:44:25;;;;;;;13.13;11.43;;;16.80;99.90;;;;;;5108775;28;20780;-72
2021/07/02 04:46:53;;;;;;;13.93;11.47;;;16.90;99.90;;;;;;5109181;28;20206;-72
2021/07/02 04:49:19;;;;;;;12.57;11.33;;;16.90;99.90;;;;;;5108282;28;20298;-72
2021/07/02 04:51:47;;;;;;;13.87;11.23;;;16.90;99.90;;;;;;5109017;28;20229;-71
2021/07/02 04:54:14;;;;;;;12.67;10.97;;;16.90;99.90;;;;;;5109141;28;20210;-72
2021/07/02 04:56:46;;;;;;;13.30;11.90;;;16.90;99.90;;;;;;5108617;28;20206;-72
2021/07/02 04:59:13;;;;;;;12.80;11.50;;;16.90;99.90;;;;;;5109121;28;20620;-71
2021/07/02 05:01:39;;;;;;;12.83;11.53;;;16.90;99.90;;;;;;5108907;28;20217;-72
2021/07/02 05:04:08;;;;;;;14.43;12.93;;;16.90;99.90;;;;;;5108685;28;20808;-71
2021/07/02 05:06:34;;;;;;;14.23;12.77;;;16.90;99.90;;;;;;5108700;28;20202;-72
2021/07/02 05:09:04;;;;;;;14.23;12.47;;;16.90;99.90;;;;;;5109118;28;20605;-71
2021/07/02 05:11:31;;;;;;;13.33;11.93;;;16.90;99.90;;;;;;5108738;28;20293;-72
2021/07/02 05:13:57;;;;;;;13.73;12.20;;;16.90;99.90;;;;;;5108903;28;20225;-71
2021/07/02 05:16:24;;;;;;;15.87;12.73;;;16.90;99.90;;;;;;5087875;28;20808;-72
2021/07/02 05:18:50;;;;;;;14.40;12.23;;;16.90;99.90;;;;;;5088130;28;20230;-72
2021/07/02 05:21:18;;;;;;;13.47;12.10;;;17.00;99.90;;;;;;5088220;28;20266;-71
2021/07/02 05:23:45;;;;;;;16.27;12.57;;;17.00;99.90;;;;;;5088248;28;20242;-72
2021/07/02 05:26:13;;;;;;;14.70;12.10;;;17.10;99.90;;;;;;5087879;28;20653;-72
2021/07/02 05:28:39;;;;;;;17.23;12.93;;;17.10;99.90;;;;;;5088234;28;20210;-72
2021/07/02 05:31:06;;;;;;;15.43;13.07;;;17.10;99.90;;;;;;5088274;28;20230;-72
2021/07/02 05:33:33;;;;;;;17.83;12.13;;;17.20;99.90;;;;;;5088162;28;20292;-72
2021/07/02 05:36:00;;;;;;;13.97;11.83;;;17.20;99.90;;;;;;5088224;28;20209;-71
2021/07/02 05:38:28;;;;;;;14.17;12.67;;;17.30;99.90;;;;;;5088233;28;20203;-71
2021/07/02 05:40:55;;;;;;;15.50;12.00;;;17.40;99.90;;;;;;5088292;28;20226;-71
2021/07/02 05:43:22;;;;;;;13.60;12.17;;;17.40;99.90;;;;;;5088061;28;20689;-71
2021/07/02 05:45:48;;;;;;;13.00;11.70;;;17.50;99.90;;;;;;5088149;28;20236;-72
2021/07/02 05:48:17;;;;;;;13.90;11.17;;;17.50;99.90;;;;;;5088197;28;20206;-71
2021/07/02 05:50:44;;;;;;;12.60;10.13;;;17.50;99.90;;;;;;5087798;28;20214;-71
2021/07/02 05:53:10;;;;;;;12.93;10.80;;;17.60;99.90;;;;;;5088158;28;20202;-71
2021/07/02 05:55:38;;;;;;;12.10;10.87;;;17.60;99.90;;;;;;5087821;28;20203;-71
2021/07/02 05:58:05;;;;;;;11.90;10.57;;;17.60;99.90;;;;;;5087727;28;20640;-72
2021/07/02 06:00:31;;;;;;;12.70;10.83;;;17.60;99.90;;;;;;5090336;28;20262;-71
2021/07/02 06:02:58;;;;;;;13.03;11.50;;;17.60;99.90;;;;;;5092023;28;20615;-71
2021/07/02 06:05:25;;;;;;;15.07;13.20;;;17.60;99.90;;;;;;5091922;28;20203;-71
2021/07/02 06:07:53;;;;;;;15.80;12.23;;;17.60;99.90;;;;;;5091605;28;20225;-72
2021/07/02 06:10:22;;;;;;;14.57;12.17;;;17.60;99.90;;;;;;5091913;28;20252;-72
2021/07/02 06:12:50;;;;;;;15.27;13.67;;;17.60;99.90;;;;;;5091321;28;20660;-72
2021/07/02 06:15:18;;;;;;;15.40;13.00;;;17.60;99.90;;;;;;5091735;28;20407;-72
2021/07/02 06:17:46;;;;;;;14.57;13.07;;;17.60;99.90;;;;;;5091632;28;20210;-72
2021/07/02 06:20:15;;;;;;;14.20;12.07;;;17.70;99.90;;;;;;5091534;28;20279;-71
2021/07/02 06:22:42;;;;;;;13.23;11.90;;;17.70;99.90;;;;;;5091588;28;20276;-72
2021/07/02 06:25:11;;;;;;;15.43;12.90;;;17.70;99.90;;;;;;5091542;28;20256;-72
2021/07/02 06:27:37;;;;;;;13.20;11.93;;;17.80;99.90;;;;;;5091100;28;20198;-72
2021/07/02 06:30:07;;;;;;;14.97;11.37;;;17.80;99.90;;;;;;5091514;28;20272;-72
2021/07/02 06:32:34;;;;;;;13.53;11.53;;;17.80;99.90;;;;;;5091244;28;20203;-72
2021/07/02 06:35:00;;;;;;;14.73;13.00;;;17.80;99.90;;;;;;5091387;28;20203;-72
2021/07/02 06:37:27;;;;;;;16.00;12.63;;;17.80;99.90;;;;;;5091232;28;20249;-72
2021/07/02 06:39:54;;;;;;;15.10;11.97;;;17.80;99.90;;;;;;5091048;28;20206;-72
2021/07/02 06:42:20;;;;;;;14.27;12.07;;;17.80;99.90;;;;;;5091398;28;20237;-72
2021/07/02 06:44:47;;;;;;;15.53;12.50;;;17.90;99.90;;;;;;5090969;28;20280;-72
2021/07/02 06:47:15;;;;;;;16.00;11.50;;;18.00;99.90;;;;;;5091198;28;20203;-71
2021/07/02 06:49:41;;;;;;;16.27;12.37;;;18.00;99.90;;;;;;5091048;28;20203;-71
2021/07/02 06:52:09;;;;;;;13.07;11.67;;;18.10;99.90;;;;;;5090965;28;20574;-72
2021/07/02 06:54:35;;;;;;;12.90;11.57;;;18.30;99.90;;;;;;5090930;28;20199;-72
2021/07/02 06:57:03;;;;;;;11.17;9.87;;;18.30;99.90;;;;;;5090723;28;20231;-71
2021/07/02 06:59:31;;;;;;;13.17;9.80;;;18.40;99.90;;;;;;5090895;28;20812;-71
2021/07/02 07:01:58;;;;;;;9.43;8.53;;;18.50;99.90;;;;;;5090928;28;20238;-71
2021/07/02 07:04:28;;;;;;;11.67;8.13;;;18.60;99.90;;;;;;5090900;28;20209;-72
2021/07/02 07:06:55;;;;;;;12.03;7.90;;;18.70;99.90;;;;;;5090689;28;20198;-71
2021/07/02 07:09:22;;;;;;;9.53;8.50;;;18.80;99.90;;;;;;5090690;28;20238;-71
2021/07/02 07:11:49;;;;;;;12.90;9.63;;;18.80;99.90;;;;;;5089456;28;20798;-72
2021/07/02 07:14:15;;;;;;;13.90;10.37;;;18.80;99.90;;;;;;5089925;28;20674;-72
2021/07/02 07:16:42;;;;;;;11.87;9.93;;;18.80;99.90;;;;;;5090636;28;20203;-72
2021/07/02 07:19:09;;;;;;;13.20;10.57;;;18.90;99.90;;;;;;5090170;28;20245;-72
2021/07/02 07:21:37;;;;;;;12.13;10.80;;;18.90;99.90;;;;;;5090195;28;20226;-72
2021/07/02 07:24:03;;;;;;;15.60;10.40;;;18.80;99.90;;;;;;5090377;28;20287;-72
2021/07/02 07:26:30;;;;;;;12.90;10.23;;;18.80;99.90;;;;;;5090245;28;20210;-72
2021/07/02 07:28:57;;;;;;;12.77;10.73;;;18.70;99.90;;;;;;5090272;28;20215;-72
2021/07/02 07:31:23;;;;;;;12.30;10.50;;;18.60;99.90;;;;;;5090122;28;20709;-72
2021/07/02 07:33:52;;;;;;;11.07;10.03;;;18.60;99.90;;;;;;5089832;28;20909;-71
2021/07/02 07:36:21;;;;;;;10.70;9.70;;;18.60;99.90;;;;;;5089967;28;20211;-71
2021/07/02 07:38:50;;;;;;;10.73;8.90;;;18.70;99.90;;;;;;5090045;28;20238;-72
2021/07/02 07:41:18;;;;;;;10.23;8.60;;;18.80;99.90;;;;;;5089825;28;20288;-71
2021/07/02 07:43:44;;;;;;;11.77;8.50;;;18.80;99.90;;;;;;5089783;28;20314;-71
2021/07/02 07:46:11;;;;;;;12.37;9.03;;;18.70;99.90;;;;;;5089871;28;20255;-71
2021/07/02 07:48:38;;;;;;;13.33;9.10;;;18.80;99.90;;;;;;5089698;28;20283;-71
2021/07/02 07:51:16;;;;;;;12.30;8.93;;;18.80;99.90;;;;;;5089916;28;20254;-72
2021/07/02 07:53:42;;;;;;;9.90;8.90;;;18.80;99.90;;;;;;5089561;28;20277;-72
2021/07/02 07:56:10;;;;;;;9.33;8.43;;;18.80;99.90;;;;;;5089461;28;20661;-71
2021/07/02 07:58:37;;;;;;;9.90;8.80;;;18.80;99.90;;;;;;5089174;28;20241;-72
2021/07/02 08:01:04;;;;;;;9.57;7.50;;;18.80;99.90;;;;;;5089585;28;20288;-72
2021/07/02 08:03:31;;;;;;;7.83;7.03;;;18.80;99.90;;;;;;5089852;28;20211;-71
2021/07/02 08:05:57;;;;;;;9.03;7.83;;;18.90;99.90;;;;;;5089113;28;20301;-71
2021/07/02 08:08:24;;;;;;;9.87;7.93;;;19.00;99.90;;;;;;5089669;28;20211;-72
2021/07/02 08:10:51;;;;;;;10.00;6.90;;;19.00;99.90;;;;;;5089633;28;20210;-71
2021/07/02 08:13:19;;;;;;;9.43;7.47;;;19.10;99.90;;;;;;5089493;28;20264;-71
2021/07/02 08:15:46;;;;;;;8.87;7.80;;;19.10;99.90;;;;;;5089073;28;20741;-71
2021/07/02 08:18:13;;;;;;;11.37;7.27;;;19.20;99.90;;;;;;5089117;28;20604;-72
2021/07/02 08:20:40;;;;;;;8.73;7.30;;;19.20;99.90;;;;;;5089174;28;20230;-72
2021/07/02 08:23:09;;;;;;;7.50;6.90;;;19.20;99.90;;;;;;5089368;28;20622;-72
2021/07/02 08:25:36;;;;;;;7.93;7.17;;;19.20;99.90;;;;;;5088992;28;20268;-71
2021/07/02 08:30:48;;;;;;;8.67;7.87;;;19.30;99.90;;;;;;5088995;28;20202;-71
2021/07/02 08:33:18;;;;;;;11.73;9.50;;;19.40;99.90;;;;;;5089136;28;20211;-71
2021/07/02 08:35:45;;;;;;;10.57;7.80;;;19.60;99.90;;;;;;5088926;28;20207;-71
2021/07/02 08:38:12;;;;;;;6.97;6.27;;;19.70;99.90;;;;;;5088903;28;20217;-71
2021/07/02 08:40:39;;;;;;;7.63;6.83;;;19.70;99.90;;;;;;5088620;28;20230;-72
2021/07/02 08:43:06;;;;;;;7.53;6.70;;;19.60;99.90;;;;;;5088610;28;20226;-71
2021/07/02 08:45:32;;;;;;;8.30;6.47;;;19.60;99.90;;;;;;5088922;28;20263;-71
2021/07/02 08:48:04;;;;;;;7.80;6.80;;;19.70;99.90;;;;;;5088609;28;20664;-71
2021/07/02 08:50:31;;;;;;;8.73;7.87;;;19.70;99.90;;;;;;5088827;28;20187;-71
2021/07/02 08:52:58;;;;;;;7.90;6.80;;;19.70;99.90;;;;;;5088631;28;20211;-72
2021/07/02 08:55:25;;;;;;;7.63;6.30;;;19.70;99.90;;;;;;5088831;28;20248;-72
2021/07/02 08:57:52;;;;;;;6.70;6.10;;;19.60;99.90;;;;;;5088425;28;20234;-72
2021/07/02 09:00:19;;;;;;;9.63;6.50;;;19.70;99.90;;;;;;5088663;28;20248;-72
2021/07/02 09:02:46;;;;;;;6.70;6.10;;;19.70;99.90;;;;;;5088442;28;20238;-71
2021/07/02 09:05:30;;;;;;;8.70;6.77;;;19.70;99.90;;;;;;5088443;28;20236;-71
2021/07/02 09:07:57;;;;;;;9.17;6.50;;;19.80;99.90;;;;;;5088567;28;20198;-72
2021/07/02 09:10:32;;;;;;;6.87;6.10;;;19.90;99.90;;;;;;5088615;28;20211;-71
2021/07/02 09:12:58;;;;;;;7.33;6.37;;;20.00;99.90;;;;;;5087997;28;20668;-71
2021/07/02 09:15:25;;;;;;;6.77;6.17;;;20.10;99.90;;;;;;5088532;28;20249;-71
2021/07/02 09:17:56;;;;;;;6.23;5.63;;;20.20;99.90;;;;;;5087879;28;20271;-72
2021/07/02 09:20:24;;;;;;;10.13;6.40;;;20.30;99.90;;;;;;5085189;28;20315;-71
2021/07/02 09:22:54;;;;;;;6.90;5.80;;;20.40;99.90;;;;;;5084638;28;20230;-71
2021/07/02 09:25:29;;;;;;;5.80;5.30;;;20.50;99.90;;;;;;5085728;28;20249;-71
2021/07/02 09:27:58;;;;;;;11.50;7.20;;;20.50;99.90;;;;;;5086033;28;20232;-71
2021/07/02 09:30:28;;;;;;;6.60;6.00;;;20.50;99.90;;;;;;5086032;28;20263;-71
2021/07/02 09:32:56;;;;;;;7.33;6.30;;;20.60;99.90;;;;;;5085546;28;20691;-71
2021/07/02 09:35:24;;;;;;;6.77;6.10;;;20.60;99.90;;;;;;5088566;28;20242;-71
2021/07/02 09:37:58;;;;;;;7.37;6.17;;;20.50;99.90;;;;;;5090412;28;20264;-71
2021/07/02 09:40:26;;;;;;;7.90;6.03;;;20.60;99.90;;;;;;5090808;28;20198;-71
2021/07/02 09:43:15;;;;;;;6.70;6.00;;;20.60;99.90;;;;;;5090311;28;20288;-71
2021/07/02 09:45:47;;;;;;;7.60;5.47;;;20.70;99.90;;;;;;5085312;28;20215;-73
2021/07/02 09:48:15;;;;;;;6.80;5.30;;;20.80;99.90;;;;;;5090169;28;20264;-72
2021/07/02 09:50:45;;;;;;;8.07;5.40;;;20.90;99.90;;;;;;5104453;28;20205;-71
2021/07/02 09:53:13;;;;;;;6.43;5.80;;;21.00;99.90;;;;;;5109834;28;20584;-71
2021/07/02 09:55:45;;;;;;;7.67;5.90;;;21.10;99.90;;;;;;5110024;28;20209;-70
2021/07/02 09:58:14;;;;;;;8.23;5.60;;;21.10;99.90;;;;;;5109705;28;20326;-71
2021/07/02 10:00:44;;;;;;;5.73;5.20;;;21.20;99.90;;;;;;5109684;28;20955;-71
2021/07/02 10:03:11;;;;;;;6.13;5.20;;;21.10;99.90;;;;;;5110038;28;20217;-71
2021/07/02 10:06:02;;;;;;;4.83;4.40;;;21.10;99.90;;;;;;5109662;28;20744;-71
2021/07/02 10:08:32;;;;;;;6.77;4.33;;;21.30;99.90;;;;;;5094507;27;20572;-71
2021/07/02 10:11:00;;;;;;;7.23;5.13;;;21.40;99.90;;;;;;5110018;28;20286;-71
2021/07/02 10:13:29;;;;;;;5.70;5.20;;;21.50;99.90;;;;;;5110004;28;20274;-71
2021/07/02 10:15:58;;;;;;;7.27;5.07;;;21.60;99.90;;;;;;5109605;28;20242;-71
2021/07/02 10:18:28;;;;;;;5.30;4.67;;;21.60;99.90;;;;;;5110100;28;20233;-71
2021/07/02 10:20:57;;;;;;;11.40;4.10;;;21.60;99.90;;;;;;5110143;28;20547;-71
2021/07/02 10:23:28;;;;;;;4.83;4.53;;;21.70;99.90;;;;;;5110420;28;20202;-71
2021/07/02 10:25:57;;;;;;;5.40;4.53;;;21.80;99.90;;;;;;5109582;28;20205;-71
2021/07/02 10:28:25;;;;;;;6.17;4.30;;;21.90;99.90;;;;;;5109733;28;20206;-71
2021/07/02 10:30:53;;;;;;;4.87;4.10;;;22.00;99.90;;;;;;5109382;27;20227;-71
2021/07/02 10:33:21;;;;;;;5.47;4.97;;;22.00;99.90;;;;;;5109570;27;20213;-71
2021/07/02 10:35:54;;;;;;;6.00;4.53;;;21.90;99.90;;;;;;5109271;28;20206;-71
2021/07/02 10:38:21;;;;;;;4.33;4.00;;;21.80;99.90;;;;;;5109541;28;20230;-71
2021/07/02 10:40:48;;;;;;;4.60;4.17;;;21.90;99.90;;;;;;5109163;28;20210;-71
2021/07/02 10:43:23;;;;;;;6.73;4.30;;;21.90;99.90;;;;;;5108847;28;20758;-71
2021/07/02 10:46:10;;;;;;;4.40;4.00;;;22.10;99.90;;;;;;5107647;27;20305;-71
2021/07/02 10:48:58;;;;;;;4.77;4.33;;;22.20;99.90;;;;;;5109273;28;20262;-71
2021/07/02 10:51:42;;;;;;;4.90;4.50;;;22.40;99.90;;;;;;5109270;28;20202;-71
2021/07/02 10:54:31;;;;;;;4.07;3.67;;;22.70;99.90;;;;;;5109076;27;20202;-71
2021/07/02 10:57:07;;;;;;;4.40;4.10;;;22.90;99.90;;;;;;5108756;28;20696;-71
2021/07/02 11:02:43;;;;;;;4.57;4.17;;;22.80;99.90;;;;;;5104104;27;20559;-71
2021/07/02 11:05:28;;;;;;;5.30;4.30;;;22.40;99.90;;;;;;5104456;28;20208;-71
2021/07/02 11:07:55;;;;;;;8.23;4.50;;;22.60;99.90;;;;;;5103547;28;20210;-72
2021/07/02 11:10:23;;;;;;;4.83;4.43;;;22.80;99.90;;;;;;5103314;28;20651;-71
2021/07/02 11:13:03;;;;;;;4.73;4.20;;;23.00;99.90;;;;;;5103344;28;20297;-71
2021/07/02 11:15:31;;;;;;;4.97;4.60;;;23.10;99.90;;;;;;5103663;28;20194;-72
2021/07/02 11:18:14;;;;;;;5.33;4.93;;;23.10;99.90;;;;;;5103549;28;20229;-72
2021/07/02 11:20:41;;;;;;;6.30;5.57;;;23.20;99.90;;;;;;5103284;28;20253;-71
2021/07/02 11:23:28;;;;;;;5.00;4.60;;;23.10;99.90;;;;;;5103944;28;20640;-71
2021/07/02 11:26:01;;;;;;;8.53;5.67;;;22.90;99.90;;;;;;5102264;28;20198;-71
2021/07/02 11:28:45;;;;;;;5.23;4.33;;;23.00;99.90;;;;;;5083276;28;20199;-71
2021/07/02 11:31:13;;;;;;;5.30;4.80;;;23.20;99.90;;;;;;5096144;28;20531;-71
2021/07/02 11:33:41;;;;;;;5.23;4.83;;;23.60;99.90;;;;;;5098385;28;20206;-72
2021/07/02 11:36:11;;;;;;;4.50;4.10;;;23.90;99.90;;;;;;5082962;28;20211;-71
2021/07/02 11:38:49;;;;;;;5.17;4.77;;;24.10;99.90;;;;;;5095195;28;20202;-71
2021/07/02 11:41:22;;;;;;;5.83;4.90;;;24.00;99.90;;;;;;5097487;28;20218;-71
2021/07/02 11:43:48;;;;;;;6.07;5.47;;;23.80;99.90;;;;;;5103127;28;20238;-71
2021/07/02 11:46:17;;;;;;;5.83;5.23;;;23.80;99.90;;;;;;5092292;28;20206;-71
2021/07/02 11:48:48;;;;;;;5.37;4.93;;;23.80;99.90;;;;;;5088550;28;20999;-71
2021/07/02 11:51:18;;;;;;;4.78;4.47;;;24.10;99.90;;;;;;5097249;28;20249;-71
2021/07/02 11:53:47;;;;;;;8.40;4.50;;;24.30;99.90;;;;;;5082539;28;20301;-71
2021/07/02 11:56:16;;;;;;;5.55;4.78;;;24.30;99.90;;;;;;5097394;28;20202;-72
2021/07/02 11:58:44;;;;;;;6.30;4.57;;;24.30;99.90;;;;;;5082688;28;20309;-71
2021/07/02 12:01:12;;;;;;;4.63;4.20;;;23.90;99.90;;;;;;5082414;28;20341;-71
2021/07/02 12:03:47;;;;;;;5.07;4.55;;;23.80;99.90;;;;;;5100560;28;20214;-72
2021/07/02 12:06:24;;;;;;;5.38;4.70;;;23.60;99.90;;;;;;5082033;28;20244;-71
2021/07/02 12:08:51;;;;;;;5.20;3.95;;;23.80;99.90;;;;;;5081795;28;20199;-71
2021/07/02 12:11:27;;;;;;;5.03;4.63;;;24.20;99.90;;;;;;5100790;28;20222;-71
2021/07/02 12:13:54;;;;;;;5.10;4.18;;;24.20;99.90;;;;;;5074542;28;20570;-71
2021/07/02 12:16:21;;;;;;;6.55;4.47;;;24.10;99.90;;;;;;5081171;28;20897;-72
2021/07/02 12:18:54;;;;;;;4.40;4.03;;;24.00;99.90;;;;;;5073391;28;20979;-71
2021/07/02 12:21:27;;;;;;;4.80;4.43;;;24.30;99.90;;;;;;5075790;28;20311;-71
2021/07/02 12:23:54;;;;;;;4.07;3.78;;;24.60;99.90;;;;;;5074130;28;20837;-72
2021/07/02 12:26:23;;;;;;;4.80;4.40;;;24.70;99.90;;;;;;5088601;28;20225;-73
2021/07/02 12:29:05;;;;;;;4.13;3.92;;;24.90;99.90;;;;;;5089131;28;20255;-73
2021/07/02 12:31:33;;;;;;;5.05;3.67;;;25.30;99.90;;;;;;5088480;28;20230;-73
2021/07/02 12:34:02;;;;;;;5.50;3.83;;;25.60;99.90;;;;;;5088498;28;20245;-73
2021/07/02 12:36:29;;;;;;;4.32;4.03;;;25.70;99.90;;;;;;5081087;28;20552;-73
2021/07/02 12:39:17;;;;;;;6.40;4.05;;;25.80;99.90;;;;;;5068106;28;20200;-74
2021/07/02 12:41:47;;;;;;;4.38;3.78;;;25.90;99.90;;;;;;5062854;28;20239;-74
2021/07/02 12:44:18;;;;;;;4.30;4.03;;;25.90;99.60;;;;;;5067914;28;20223;-74
2021/07/02 12:46:45;;;;;;;4.13;3.78;;;26.00;99.70;;;;;;5076967;28;20279;-74